createdAt,value
2018-11-20T00:03:08.978Z,3.60
2018-11-20T00:06:09.701Z,3.60
2018-11-20T00:09:02.154Z,3.60
2018-11-20T00:11:56.814Z,3.50
2018-11-20T00:14:51.785Z,3.50
2018-11-20T00:17:44.580Z,3.40
2018-11-20T00:20:45.078Z,3.50
2018-11-20T00:23:32.565Z,3.50
2018-11-20T00:26:24.781Z,3.40
2018-11-20T00:29:02.711Z,3.40
2018-11-20T00:31:52.835Z,3.40
2018-11-20T00:34:45.565Z,3.40
2018-11-20T00:37:54.518Z,3.50
2018-11-20T00:43:06.279Z,3.60
2018-11-20T00:45:50.362Z,3.60
2018-11-20T00:48:40.655Z,3.60
2018-11-20T00:51:29.034Z,3.60
2018-11-20T00:54:16.869Z,3.60
2018-11-20T00:59:35.120Z,3.60
2018-11-20T01:02:27.151Z,3.60
2018-11-20T01:05:18.097Z,3.70
2018-11-20T01:08:06.289Z,3.70
2018-11-20T01:10:56.604Z,3.70
2018-11-20T01:14:05.125Z,3.80
2018-11-20T01:16:55.917Z,3.90
2018-11-20T01:19:53.614Z,3.90
2018-11-20T01:22:51.507Z,3.80
2018-11-20T01:25:41.694Z,3.90
2018-11-20T01:28:32.164Z,3.90
2018-11-20T01:31:20.613Z,3.80
2018-11-20T01:34:11.246Z,3.80
2018-11-20T01:37:00.054Z,3.80
2018-11-20T01:39:50.423Z,3.90
2018-11-20T01:42:53.867Z,3.90
2018-11-20T01:45:49.211Z,3.80
2018-11-20T01:48:37.800Z,3.80
2018-11-20T01:51:30.342Z,3.70
2018-11-20T01:54:11.382Z,3.70
2018-11-20T01:57:00.379Z,3.60
2018-11-20T01:59:49.378Z,3.60
2018-11-20T02:02:42.587Z,3.60
2018-11-20T02:05:33.875Z,3.60
2018-11-20T02:08:34.872Z,3.50
2018-11-20T02:11:27.982Z,3.60
2018-11-20T02:14:40.626Z,3.50
2018-11-20T02:19:58.587Z,3.50
2018-11-20T02:26:10.270Z,3.60
2018-11-20T02:31:28.089Z,3.70
2018-11-20T02:34:22.191Z,3.70
2018-11-20T02:37:32.437Z,3.70
2018-11-20T02:43:10.987Z,3.80
2018-11-20T02:45:59.264Z,3.70
2018-11-20T02:49:02.717Z,3.70
2018-11-20T02:51:52.516Z,3.70
2018-11-20T02:54:43.304Z,3.70
2018-11-20T02:57:36.631Z,3.70
2018-11-20T03:00:40.420Z,3.60
2018-11-20T03:03:29.547Z,3.60
2018-11-20T03:06:23.039Z,3.60
2018-11-20T03:09:22.093Z,3.70
2018-11-20T03:12:12.811Z,3.70
2018-11-20T03:15:18.358Z,3.70
2018-11-20T03:18:08.690Z,3.80
2018-11-20T03:20:55.871Z,3.70
2018-11-20T03:23:53.969Z,3.70
2018-11-20T03:26:43.606Z,3.70
2018-11-20T03:29:56.700Z,3.70
2018-11-20T03:35:31.746Z,3.80
2018-11-20T03:38:22.489Z,3.80
2018-11-20T03:41:14.834Z,3.80
2018-11-20T03:46:34.533Z,3.80
2018-11-20T03:49:25.539Z,3.80
2018-11-20T03:52:15.816Z,3.90
2018-11-20T03:55:17.489Z,3.80
2018-11-20T03:58:09.317Z,3.80
2018-11-20T04:01:02.489Z,3.80
2018-11-20T04:03:57.662Z,3.70
2018-11-20T04:06:52.933Z,3.80
2018-11-20T04:10:00.812Z,3.80
2018-11-20T04:12:49.856Z,3.80
2018-11-20T04:15:57.565Z,3.80
2018-11-20T04:18:45.966Z,3.90
2018-11-20T04:21:56.737Z,3.90
2018-11-20T04:24:48.661Z,3.80
2018-11-20T04:27:50.237Z,3.80
2018-11-20T04:30:29.071Z,3.90
2018-11-20T04:34:12.616Z,4.00
2018-11-20T04:36:53.741Z,3.90
2018-11-20T04:39:43.783Z,3.90
2018-11-20T04:42:32.236Z,3.90
2018-11-20T04:45:24.677Z,4.00
2018-11-20T04:48:14.629Z,4.00
2018-11-20T04:51:06.643Z,4.10
2018-11-20T04:53:55.245Z,4.00
2018-11-20T04:56:47.356Z,4.00
2018-11-20T04:59:44.789Z,4.00
2018-11-20T05:02:42.733Z,4.00
2018-11-20T05:05:35.898Z,4.00
2018-11-20T05:08:28.355Z,4.10
2018-11-20T05:11:29.634Z,4.10
2018-11-20T05:14:30.406Z,4.10
2018-11-20T05:17:20.700Z,4.00
2018-11-20T05:20:15.789Z,4.10
2018-11-20T05:23:04.237Z,4.10
2018-11-20T05:25:54.823Z,4.00
2018-11-20T05:28:43.545Z,4.10
2018-11-20T05:31:35.432Z,4.10
2018-11-20T05:34:30.509Z,4.00
2018-11-20T05:37:31.528Z,4.00
2018-11-20T05:40:17.997Z,4.10
2018-11-20T05:43:07.928Z,4.10
2018-11-20T05:45:55.839Z,4.10
2018-11-20T05:48:53.430Z,4.00
2018-11-20T05:51:57.334Z,4.00
2018-11-20T05:54:48.036Z,4.10
2018-11-20T05:57:35.206Z,4.10
2018-11-20T06:00:43.490Z,4.20
2018-11-20T06:03:32.441Z,4.20
2018-11-20T06:06:23.139Z,4.30
2018-11-20T06:09:13.549Z,4.30
2018-11-20T06:12:15.044Z,4.20
2018-11-20T06:15:10.726Z,4.20
2018-11-20T06:18:00.023Z,4.20
2018-11-20T06:20:48.646Z,4.10
2018-11-20T06:23:46.783Z,4.10
2018-11-20T06:26:49.202Z,4.00
2018-11-20T06:29:40.256Z,4.00
2018-11-20T06:32:39.123Z,4.10
2018-11-20T06:35:29.968Z,4.00
2018-11-20T06:38:18.740Z,4.00
2018-11-20T06:41:17.874Z,3.90
2018-11-20T06:44:25.837Z,3.90
2018-11-20T06:47:17.754Z,3.90
2018-11-20T06:50:22.482Z,3.90
2018-11-20T06:53:03.076Z,3.90
2018-11-20T06:55:51.938Z,3.90
2018-11-20T06:58:46.298Z,4.00
2018-11-20T07:04:04.722Z,4.10
2018-11-20T07:07:14.426Z,4.00
2018-11-20T07:10:15.110Z,4.00
2018-11-20T07:13:03.380Z,4.00
2018-11-20T07:15:54.363Z,4.00
2018-11-20T07:19:02.453Z,4.10
2018-11-20T07:21:40.499Z,4.20
2018-11-20T07:24:48.732Z,4.20
2018-11-20T07:27:39.539Z,4.20
2018-11-20T07:30:35.400Z,4.20
2018-11-20T07:34:11.699Z,4.30
2018-11-20T07:37:06.804Z,4.40
2018-11-20T07:39:57.624Z,4.40
2018-11-20T07:42:48.482Z,4.30
2018-11-20T07:45:34.916Z,4.40
2018-11-20T07:48:25.794Z,4.40
2018-11-20T07:51:16.740Z,4.40
2018-11-20T07:54:19.505Z,4.40
2018-11-20T07:57:05.884Z,4.50
2018-11-20T07:59:52.511Z,4.50
2018-11-20T08:02:43.119Z,4.50
2018-11-20T08:05:39.189Z,4.50
2018-11-20T08:08:25.162Z,4.40
2018-11-20T08:10:59.754Z,4.50
2018-11-20T08:13:59.790Z,4.40
2018-11-20T08:16:40.809Z,4.30
2018-11-20T08:19:34.381Z,4.30
2018-11-20T08:22:27.928Z,4.20
2018-11-20T08:25:34.053Z,4.20
2018-11-20T08:28:21.817Z,4.20
2018-11-20T08:31:08.173Z,4.30
2018-11-20T08:33:54.630Z,4.30
2018-11-20T08:36:52.382Z,4.30
2018-11-20T08:39:43.165Z,4.30
2018-11-20T08:42:49.319Z,4.30
2018-11-20T08:45:35.872Z,4.40
2018-11-20T08:48:19.968Z,4.40
2018-11-20T08:51:11.198Z,4.40
2018-11-20T08:54:07.893Z,4.30
2018-11-20T08:57:07.719Z,4.20
2018-11-20T09:00:11.401Z,4.10
2018-11-20T09:02:59.261Z,4.10
2018-11-20T09:06:02.413Z,4.00
2018-11-20T09:08:49.048Z,4.00
2018-11-20T09:11:36.879Z,4.00
2018-11-20T09:14:23.697Z,3.90
2018-11-20T09:17:09.970Z,4.00
2018-11-20T09:20:03.771Z,3.90
2018-11-20T09:22:51.647Z,3.90
2018-11-20T09:25:45.525Z,3.90
2018-11-20T09:28:36.238Z,3.90
2018-11-20T09:31:22.779Z,3.90
2018-11-20T09:34:14.105Z,3.90
2018-11-20T09:37:06.206Z,3.90
2018-11-20T09:40:05.778Z,4.00
2018-11-20T09:42:44.308Z,4.00
2018-11-20T09:46:02.576Z,4.00
2018-11-20T09:48:46.650Z,4.00
2018-11-20T09:51:22.817Z,4.00
2018-11-20T09:54:16.656Z,4.10
2018-11-20T09:57:02.607Z,4.00
2018-11-20T09:59:48.895Z,4.10
2018-11-20T10:02:39.224Z,4.20
2018-11-20T10:05:45.181Z,4.10
2018-11-20T10:08:31.715Z,4.00
2018-11-20T10:11:18.008Z,3.90
2018-11-20T10:14:08.799Z,3.80
2018-11-20T10:16:46.524Z,3.80
2018-11-20T10:19:46.529Z,3.70
2018-11-20T10:22:30.045Z,3.70
2018-11-20T10:25:26.765Z,3.70
2018-11-20T10:28:13.222Z,3.70
2018-11-20T10:30:57.334Z,3.70
2018-11-20T10:33:43.823Z,3.80
2018-11-20T10:36:30.264Z,3.80
2018-11-20T10:39:18.220Z,3.80
2018-11-20T10:42:12.249Z,3.80
2018-11-20T10:44:58.400Z,4.00
2018-11-20T10:47:44.766Z,4.00
2018-11-20T10:50:31.238Z,4.00
2018-11-20T10:53:17.271Z,4.00
2018-11-20T10:56:10.576Z,4.00
2018-11-20T10:58:56.770Z,4.10
2018-11-20T11:01:43.360Z,4.10
2018-11-20T11:04:31.168Z,4.10
2018-11-20T11:07:18.428Z,4.00
2018-11-20T11:09:57.849Z,3.90
2018-11-20T11:12:48.351Z,4.00
2018-11-20T11:15:52.817Z,3.90
2018-11-20T11:18:56.005Z,3.90
2018-11-20T11:21:59.038Z,3.90
2018-11-20T11:24:45.805Z,3.90
2018-11-20T11:27:36.119Z,4.00
2018-11-20T11:30:17.822Z,4.00
2018-11-20T11:33:17.604Z,4.00
2018-11-20T11:36:17.471Z,4.10
2018-11-20T11:39:08.326Z,4.20
2018-11-20T11:41:54.885Z,4.30
2018-11-20T11:44:51.741Z,4.30
2018-11-20T11:47:39.511Z,4.20
2018-11-20T11:50:29.403Z,4.10
2018-11-20T11:53:25.879Z,4.00
2018-11-20T11:56:11.991Z,4.00
2018-11-20T11:59:05.528Z,3.90
2018-11-20T12:04:42.125Z,3.90
2018-11-20T12:07:26.564Z,3.90
2018-11-20T12:10:17.115Z,3.90
2018-11-20T12:13:03.865Z,3.90
2018-11-20T12:15:50.198Z,3.90
2018-11-20T12:18:49.866Z,3.90
2018-11-20T12:21:34.562Z,4.00
2018-11-20T12:24:22.447Z,4.00
2018-11-20T12:27:10.116Z,4.00
2018-11-20T12:30:02.775Z,4.00
2018-11-20T12:32:53.322Z,4.10
2018-11-20T12:35:41.128Z,4.00
2018-11-20T12:38:44.058Z,4.10
2018-11-20T12:41:31.881Z,4.00
2018-11-20T12:44:20.102Z,4.00
2018-11-20T12:47:04.558Z,4.00
2018-11-20T12:49:55.287Z,3.90
2018-11-20T12:52:45.859Z,3.80
2018-11-20T12:55:34.024Z,3.80
2018-11-20T12:58:20.251Z,3.80
2018-11-20T13:01:08.095Z,3.80
2018-11-20T13:03:58.647Z,3.70
2018-11-20T13:06:46.384Z,3.80
2018-11-20T13:09:46.094Z,3.80
2018-11-20T13:12:32.514Z,3.80
2018-11-20T13:15:18.864Z,3.70
2018-11-20T13:18:12.658Z,3.70
2018-11-20T13:21:03.393Z,3.60
2018-11-20T13:24:00.454Z,3.60
2018-11-20T13:26:46.795Z,3.50
2018-11-20T13:29:33.196Z,3.50
2018-11-20T13:32:33.257Z,3.50
2018-11-20T13:35:36.318Z,3.50
2018-11-20T13:38:23.059Z,3.50
2018-11-20T13:42:02.252Z,3.50
2018-11-20T13:44:51.959Z,3.40
2018-11-20T13:47:38.165Z,3.40
2018-11-20T13:50:23.555Z,3.30
2018-11-20T13:53:23.015Z,3.20
2018-11-20T13:56:16.682Z,3.10
2018-11-20T13:59:03.274Z,3.10
2018-11-20T14:02:08.909Z,3.10
2018-11-20T14:04:59.464Z,3.10
2018-11-20T14:07:59.430Z,3.20
2018-11-20T14:10:55.811Z,3.20
2018-11-20T14:13:43.705Z,3.20
2018-11-20T14:16:45.006Z,3.20
2018-11-20T14:19:43.133Z,3.10
2018-11-20T14:22:36.667Z,3.20
2018-11-20T14:25:29.881Z,3.10
2018-11-20T14:28:35.765Z,3.10
2018-11-20T14:31:26.667Z,3.10
2018-11-20T14:34:09.603Z,3.10
2018-11-20T14:36:56.230Z,3.10
2018-11-20T14:39:49.724Z,3.10
2018-11-20T14:42:36.056Z,3.10
2018-11-20T14:45:23.839Z,3.00
2018-11-20T14:48:10.650Z,2.90
2018-11-20T14:51:01.396Z,2.80
2018-11-20T14:53:56.898Z,2.70
2018-11-20T14:56:36.898Z,2.70
2018-11-20T14:59:22.491Z,2.70
2018-11-20T15:02:08.836Z,2.70
2018-11-20T15:04:54.842Z,2.60
2018-11-20T15:07:59.013Z,2.50
2018-11-20T15:10:38.259Z,2.50
2018-11-20T15:13:24.307Z,2.50
2018-11-20T15:16:23.040Z,2.50
2018-11-20T15:19:03.152Z,2.50
2018-11-20T15:21:48.444Z,2.50
2018-11-20T15:24:34.625Z,2.50
2018-11-20T15:27:22.411Z,2.50
2018-11-20T15:30:15.920Z,2.40
2018-11-20T15:33:03.933Z,2.40
2018-11-20T15:36:00.643Z,2.30
2018-11-20T15:39:00.354Z,2.20
2018-11-20T15:42:06.603Z,2.10
2018-11-20T15:44:57.411Z,2.00
2018-11-20T15:47:57.066Z,2.00
2018-11-20T15:50:50.438Z,2.00
2018-11-20T15:53:36.486Z,2.00
2018-11-20T15:56:22.654Z,2.10
2018-11-20T15:59:25.530Z,2.10
2018-11-20T16:02:12.042Z,2.10
2018-11-20T16:05:05.521Z,2.10
2018-11-20T16:07:52.160Z,2.00
2018-11-20T16:10:51.893Z,2.00
2018-11-20T16:13:38.246Z,2.00
2018-11-20T16:16:26.003Z,2.00
2018-11-20T16:19:13.842Z,2.00
2018-11-20T16:21:54.122Z,2.00
2018-11-20T16:24:50.965Z,2.00
2018-11-20T16:27:37.439Z,2.10
2018-11-20T16:30:26.947Z,2.10
2018-11-20T16:33:17.773Z,2.10
2018-11-20T16:36:08.099Z,2.10
2018-11-20T16:39:02.043Z,2.10
2018-11-20T16:41:52.656Z,2.10
2018-11-20T16:44:39.389Z,2.00
2018-11-20T16:47:17.911Z,2.10
2018-11-20T16:50:05.724Z,2.00
2018-11-20T16:52:53.731Z,2.00
2018-11-20T16:55:43.196Z,2.00
2018-11-20T16:58:27.668Z,2.00
2018-11-20T17:01:15.059Z,2.00
2018-11-20T17:04:02.867Z,2.00
2018-11-20T17:07:03.088Z,2.00
2018-11-20T17:10:00.191Z,2.00
2018-11-20T17:12:46.449Z,1.90
2018-11-20T17:15:26.381Z,1.90
2018-11-20T17:18:12.827Z,2.00
2018-11-20T17:21:06.574Z,2.00
2018-11-20T17:24:12.581Z,2.00
2018-11-20T17:26:58.850Z,2.00
2018-11-20T17:29:58.753Z,2.00
2018-11-20T17:32:41.068Z,2.00
2018-11-20T17:35:28.151Z,2.00
2018-11-20T17:38:14.985Z,2.00
2018-11-20T17:41:01.466Z,2.00
2018-11-20T17:43:49.656Z,2.00
2018-11-20T17:46:30.422Z,2.10
2018-11-20T17:49:16.680Z,2.10
2018-11-20T17:52:21.557Z,2.10
2018-11-20T17:55:09.368Z,2.20
2018-11-20T17:58:09.254Z,2.20
2018-11-20T18:01:01.712Z,2.10
2018-11-20T18:03:48.130Z,2.10
2018-11-20T18:06:32.173Z,2.10
2018-11-20T18:09:17.118Z,2.20
2018-11-20T18:12:17.068Z,2.20
2018-11-20T18:15:06.329Z,2.20
2018-11-20T18:17:54.195Z,2.20
2018-11-20T18:20:53.926Z,2.20
2018-11-20T18:23:53.997Z,2.20
2018-11-20T18:26:41.913Z,2.20
2018-11-20T18:29:41.759Z,2.30
2018-11-20T18:32:28.162Z,2.30
2018-11-20T18:35:21.793Z,2.30
2018-11-20T18:38:08.279Z,2.30
2018-11-20T18:40:54.425Z,2.30
2018-11-20T18:43:42.185Z,2.30
2018-11-20T18:46:32.645Z,2.20
2018-11-20T18:49:19.762Z,2.30
2018-11-20T18:52:07.741Z,2.30
2018-11-20T18:55:12.608Z,2.30
2018-11-20T18:58:10.709Z,2.20
2018-11-20T19:00:57.155Z,2.30
2018-11-20T19:03:51.665Z,2.30
2018-11-20T19:06:48.127Z,2.30
2018-11-20T19:09:29.329Z,2.30
2018-11-20T19:12:35.550Z,2.30
2018-11-20T19:15:23.316Z,2.30
2018-11-20T19:18:27.871Z,2.30
2018-11-20T19:21:14.183Z,2.30
2018-11-20T19:24:01.992Z,2.30
2018-11-20T19:26:49.737Z,2.30
2018-11-20T19:29:55.896Z,2.30
2018-11-20T19:32:55.456Z,2.30
2018-11-20T19:35:49.108Z,2.30
2018-11-20T19:38:39.547Z,2.30
2018-11-20T19:41:25.749Z,2.30
2018-11-20T19:44:28.876Z,2.30
2018-11-20T19:47:25.333Z,2.30
2018-11-20T19:50:30.970Z,2.30
2018-11-20T19:53:25.808Z,2.30
2018-11-20T19:56:07.441Z,2.30
2018-11-20T19:58:57.781Z,2.30
2018-11-20T20:02:04.177Z,2.30
2018-11-20T20:04:50.648Z,2.30
2018-11-20T20:07:41.510Z,2.30
2018-11-20T20:10:35.015Z,2.30
2018-11-20T20:13:21.210Z,2.30
2018-11-20T20:16:07.717Z,2.40
2018-11-20T20:19:07.672Z,2.30
2018-11-20T20:21:52.508Z,2.30
2018-11-20T20:24:43.428Z,2.30
2018-11-20T20:27:30.028Z,2.30
2018-11-20T20:30:16.500Z,2.30
2018-11-20T20:33:03.074Z,2.30
2018-11-20T20:35:53.707Z,2.30
2018-11-20T20:38:44.034Z,2.30
2018-11-20T20:41:34.509Z,2.30
2018-11-20T20:44:20.960Z,2.30
2018-11-20T20:47:14.771Z,2.30
2018-11-20T20:49:55.985Z,2.30
2018-11-20T20:52:46.351Z,2.30
2018-11-20T20:55:32.635Z,2.30
2018-11-20T20:58:20.701Z,2.30
2018-11-20T21:01:08.448Z,2.30
2018-11-20T21:03:56.992Z,2.40
2018-11-20T21:06:38.177Z,2.40
2018-11-20T21:09:44.418Z,2.40
2018-11-20T21:12:59.454Z,2.40
2018-11-20T21:15:41.441Z,2.40
2018-11-20T21:18:29.259Z,2.40
2018-11-20T21:21:34.809Z,2.30
2018-11-20T21:24:28.686Z,2.40
2018-11-20T21:27:18.306Z,2.30
2018-11-20T21:30:04.581Z,2.30
2018-11-20T21:33:01.620Z,2.30
2018-11-20T21:36:04.438Z,2.30
2018-11-20T21:38:52.471Z,2.30
2018-11-20T21:41:45.988Z,2.20
2018-11-20T21:44:37.576Z,2.20
2018-11-20T21:47:28.360Z,2.10
2018-11-20T21:50:16.396Z,2.10
2018-11-20T21:53:02.782Z,2.10
2018-11-20T21:56:02.661Z,2.00
2018-11-20T21:58:48.806Z,2.00
2018-11-20T22:01:51.758Z,2.00
2018-11-20T22:04:39.658Z,2.00
2018-11-20T22:07:27.619Z,2.00
2018-11-20T22:10:24.411Z,2.00
2018-11-20T22:13:11.267Z,2.00
2018-11-20T22:15:57.444Z,2.10
2018-11-20T22:18:48.254Z,2.10
2018-11-20T22:21:38.989Z,2.00
2018-11-20T22:24:25.594Z,2.00
2018-11-20T22:27:06.806Z,2.00
2018-11-20T22:30:07.853Z,2.00
2018-11-20T22:33:04.067Z,1.90
2018-11-20T22:35:50.461Z,1.90
2018-11-20T22:38:43.849Z,1.90
2018-11-20T22:41:25.874Z,1.80
2018-11-20T22:44:17.068Z,1.80
2018-11-20T22:47:04.844Z,1.90
2018-11-20T22:49:52.594Z,1.80
2018-11-20T22:52:40.508Z,1.80
2018-11-20T22:55:26.996Z,1.80
2018-11-20T22:58:13.205Z,1.80
2018-11-20T23:01:01.752Z,1.80
2018-11-20T23:03:41.987Z,1.80
2018-11-20T23:06:26.935Z,1.90
2018-11-20T23:08:55.738Z,1.80
2018-11-20T23:11:24.593Z,1.80
2018-11-20T23:13:53.468Z,1.80
2018-11-20T23:16:22.168Z,1.80
2018-11-20T23:18:50.970Z,1.80
2018-11-20T23:21:19.702Z,1.80
2018-11-20T23:23:48.562Z,1.80
2018-11-20T23:26:17.414Z,1.80
2018-11-20T23:28:46.850Z,1.90
2018-11-20T23:31:15.487Z,1.90
2018-11-20T23:33:44.160Z,1.80
2018-11-20T23:36:12.988Z,1.90
2018-11-20T23:38:41.792Z,1.80
2018-11-20T23:41:10.449Z,1.90
2018-11-20T23:43:39.154Z,1.80
2018-11-20T23:46:07.997Z,1.80
2018-11-20T23:48:36.824Z,1.80
2018-11-20T23:51:05.667Z,1.80
2018-11-20T23:53:34.520Z,1.80
2018-11-20T23:56:03.300Z,1.80
2018-11-20T23:58:32.060Z,1.80
